createdAt,value
2018-05-27T00:00:37.772Z,0.00
2018-05-27T00:01:37.777Z,0.00
2018-05-27T00:02:37.783Z,0.00
2018-05-27T00:03:37.790Z,0.00
2018-05-27T00:04:37.794Z,0.00
2018-05-27T00:05:37.800Z,0.00
2018-05-27T00:06:37.805Z,0.00
2018-05-27T00:07:37.811Z,0.00
2018-05-27T00:08:37.816Z,0.00
2018-05-27T00:09:37.822Z,0.00
2018-05-27T00:10:37.827Z,0.00
2018-05-27T00:11:37.834Z,0.00
2018-05-27T00:12:37.839Z,0.00
2018-05-27T00:13:37.844Z,0.00
2018-05-27T00:14:37.849Z,0.00
2018-05-27T00:15:37.855Z,0.00
2018-05-27T00:16:37.862Z,0.00
2018-05-27T00:17:37.866Z,0.00
2018-05-27T00:18:37.873Z,0.00
2018-05-27T00:19:37.881Z,0.00
2018-05-27T00:20:37.883Z,0.00
2018-05-27T00:21:37.888Z,0.00
2018-05-27T00:22:37.893Z,0.00
2018-05-27T00:23:37.899Z,0.00
2018-05-27T00:24:37.904Z,0.00
2018-05-27T00:25:37.911Z,0.00
2018-05-27T00:26:37.915Z,0.00
2018-05-27T00:27:37.921Z,0.00
2018-05-27T00:28:37.927Z,0.00
2018-05-27T00:29:37.932Z,0.00
2018-05-27T00:30:37.937Z,0.00
2018-05-27T00:31:37.943Z,0.00
2018-05-27T00:32:37.952Z,0.00
2018-05-27T00:33:37.954Z,0.00
2018-05-27T00:34:37.959Z,0.00
2018-05-27T00:35:37.964Z,0.00
2018-05-27T00:36:37.969Z,0.00
2018-05-27T00:37:37.975Z,0.00
2018-05-27T00:38:37.980Z,0.00
2018-05-27T00:39:37.985Z,0.00
2018-05-27T00:40:37.991Z,0.00
2018-05-27T00:41:37.997Z,0.00
2018-05-27T00:42:38.002Z,0.00
2018-05-27T00:43:38.007Z,0.00
2018-05-27T00:44:38.012Z,0.00
2018-05-27T00:45:38.019Z,0.00
2018-05-27T00:46:38.024Z,0.00
2018-05-27T00:47:38.028Z,0.00
2018-05-27T00:48:38.033Z,0.00
2018-05-27T00:49:38.040Z,0.00
2018-05-27T00:50:38.042Z,0.00
2018-05-27T00:51:38.049Z,0.00
2018-05-27T00:52:38.053Z,0.00
2018-05-27T00:53:38.058Z,0.00
2018-05-27T00:54:38.063Z,0.00
2018-05-27T00:55:38.069Z,0.00
2018-05-27T00:56:38.075Z,0.00
2018-05-27T00:57:38.080Z,0.00
2018-05-27T00:58:38.085Z,0.00
2018-05-27T00:59:38.090Z,0.00
2018-05-27T01:00:38.094Z,0.00
2018-05-27T01:01:38.101Z,0.00
2018-05-27T01:02:38.105Z,0.00
2018-05-27T01:03:38.110Z,0.00
2018-05-27T01:04:38.115Z,0.00
2018-05-27T01:05:38.125Z,0.00
2018-05-27T01:06:38.125Z,0.00
2018-05-27T01:07:38.130Z,0.00
2018-05-27T01:08:38.137Z,0.00
2018-05-27T01:09:38.142Z,0.00
2018-05-27T01:10:38.145Z,0.00
2018-05-27T01:11:38.151Z,0.00
2018-05-27T01:12:38.157Z,0.00
2018-05-27T01:13:38.161Z,0.00
2018-05-27T01:14:38.166Z,0.00
2018-05-27T01:15:38.171Z,0.00
2018-05-27T01:16:38.176Z,0.00
2018-05-27T01:17:38.181Z,0.00
2018-05-27T01:18:38.187Z,0.00
2018-05-27T01:19:38.189Z,0.00
2018-05-27T01:20:38.195Z,0.00
2018-05-27T01:21:38.202Z,0.00
2018-05-27T01:22:38.208Z,0.00
2018-05-27T01:23:38.210Z,0.00
2018-05-27T01:24:38.216Z,0.00
2018-05-27T01:25:38.220Z,0.00
2018-05-27T01:26:38.224Z,0.00
2018-05-27T01:27:38.231Z,0.00
2018-05-27T01:28:38.235Z,0.00
2018-05-27T01:29:38.239Z,0.00
2018-05-27T01:30:38.244Z,0.00
2018-05-27T01:31:38.250Z,0.00
2018-05-27T01:32:38.253Z,0.00
2018-05-27T01:33:38.262Z,0.00
2018-05-27T01:34:38.263Z,0.00
2018-05-27T01:35:38.267Z,0.00
2018-05-27T01:36:38.274Z,0.00
2018-05-27T01:37:38.280Z,0.00
2018-05-27T01:38:38.283Z,0.00
2018-05-27T01:39:38.288Z,0.00
2018-05-27T01:40:38.293Z,0.00
2018-05-27T01:41:38.298Z,0.00
2018-05-27T01:42:38.302Z,0.00
2018-05-27T01:43:38.308Z,0.00
2018-05-27T01:44:38.311Z,0.00
2018-05-27T01:45:38.317Z,0.00
2018-05-27T01:46:38.324Z,0.00
2018-05-27T01:47:38.326Z,0.00
2018-05-27T01:48:38.331Z,0.00
2018-05-27T01:49:38.337Z,0.00
2018-05-27T01:50:38.341Z,0.00
2018-05-27T01:51:38.345Z,0.00
2018-05-27T01:52:38.352Z,0.00
2018-05-27T01:53:38.356Z,0.00
2018-05-27T01:54:38.360Z,0.00
2018-05-27T01:55:38.365Z,0.00
2018-05-27T01:56:38.375Z,0.00
2018-05-27T01:57:38.374Z,0.00
2018-05-27T01:58:38.379Z,0.00
2018-05-27T01:59:38.383Z,0.00
2018-05-27T02:00:38.392Z,0.00
2018-05-27T02:01:38.396Z,0.00
2018-05-27T02:02:38.398Z,0.00
2018-05-27T02:03:38.403Z,0.00
2018-05-27T02:04:38.408Z,0.00
2018-05-27T02:05:38.413Z,0.00
2018-05-27T02:06:38.416Z,0.00
2018-05-27T02:07:38.421Z,0.00
2018-05-27T02:08:38.427Z,0.00
2018-05-27T02:09:38.430Z,0.00
2018-05-27T02:10:38.439Z,0.00
2018-05-27T02:11:38.441Z,0.00
2018-05-27T02:12:38.451Z,0.00
2018-05-27T02:13:38.450Z,0.00
2018-05-27T02:14:38.454Z,0.00
2018-05-27T02:15:38.458Z,0.00
2018-05-27T02:16:38.465Z,0.00
2018-05-27T02:17:38.469Z,0.00
2018-05-27T02:18:38.472Z,0.00
2018-05-27T02:19:38.478Z,0.00
2018-05-27T02:20:38.481Z,0.00
2018-05-27T02:21:38.488Z,0.00
2018-05-27T02:22:38.491Z,0.00
2018-05-27T02:23:38.495Z,0.00
2018-05-27T02:24:38.501Z,0.00
2018-05-27T02:25:38.505Z,0.00
2018-05-27T02:26:38.509Z,0.00
2018-05-27T02:27:38.514Z,0.00
2018-05-27T02:28:38.519Z,0.00
2018-05-27T02:29:38.523Z,0.00
2018-05-27T02:30:38.527Z,0.00
2018-05-27T02:31:38.533Z,0.00
2018-05-27T02:32:38.536Z,0.00
2018-05-27T02:33:38.547Z,0.00
2018-05-27T02:34:38.546Z,0.00
2018-05-27T02:35:38.550Z,0.00
2018-05-27T02:36:38.560Z,0.00
2018-05-27T02:37:38.559Z,0.00
2018-05-27T02:38:38.562Z,0.00
2018-05-27T02:39:38.569Z,0.00
2018-05-27T02:40:38.573Z,0.00
2018-05-27T02:41:38.577Z,0.00
2018-05-27T02:42:38.582Z,4.00
2018-05-27T02:43:38.585Z,4.00
2018-05-27T02:44:38.594Z,4.00
2018-05-27T02:45:38.594Z,0.00
2018-05-27T02:46:38.598Z,4.00
2018-05-27T02:47:38.602Z,4.00
2018-05-27T02:48:38.608Z,4.00
2018-05-27T02:49:38.610Z,4.00
2018-05-27T02:50:38.615Z,8.00
2018-05-27T02:51:38.620Z,4.00
2018-05-27T02:52:38.626Z,8.00
2018-05-27T02:53:38.629Z,8.00
2018-05-27T02:54:38.633Z,8.00
2018-05-27T02:55:38.638Z,8.00
2018-05-27T02:56:38.641Z,12.00
2018-05-27T02:57:38.647Z,12.00
2018-05-27T02:58:38.653Z,12.00
2018-05-27T02:59:38.654Z,16.00
2018-05-27T03:00:38.659Z,20.00
2018-05-27T03:01:38.664Z,20.00
2018-05-27T03:02:38.668Z,20.00
2018-05-27T03:03:38.675Z,28.00
2018-05-27T03:04:38.678Z,28.00
2018-05-27T03:05:38.683Z,32.00
2018-05-27T03:06:38.685Z,36.00
2018-05-27T03:07:38.690Z,40.00
2018-05-27T03:08:38.695Z,44.00
2018-05-27T03:09:38.699Z,48.00
2018-05-27T03:10:38.704Z,56.00
2018-05-27T03:11:38.712Z,60.00
2018-05-27T03:12:38.712Z,68.00
2018-05-27T03:13:38.717Z,72.00
2018-05-27T03:14:38.720Z,80.00
2018-05-27T03:15:38.725Z,88.00
2018-05-27T03:16:38.729Z,92.00
2018-05-27T03:17:38.741Z,104.00
2018-05-27T03:18:38.736Z,108.00
2018-05-27T03:19:38.741Z,120.00
2018-05-27T03:20:38.747Z,128.00
2018-05-27T03:21:38.750Z,140.00
2018-05-27T03:22:38.755Z,152.00
2018-05-27T03:23:38.760Z,164.00
2018-05-27T03:24:38.763Z,172.00
2018-05-27T03:25:38.770Z,188.00
2018-05-27T03:26:38.773Z,200.00
2018-05-27T03:27:38.776Z,212.00
2018-05-27T03:28:38.781Z,228.00
2018-05-27T03:29:38.786Z,240.00
2018-05-27T03:30:38.790Z,260.00
2018-05-27T03:31:38.793Z,272.00
2018-05-27T03:32:38.820Z,288.00
2018-05-27T03:33:38.804Z,304.00
2018-05-27T03:34:38.809Z,320.00
2018-05-27T03:35:38.811Z,340.00
2018-05-27T03:36:38.815Z,360.00
2018-05-27T03:37:38.820Z,380.00
2018-05-27T03:38:38.823Z,396.00
2018-05-27T03:39:38.827Z,420.00
2018-05-27T03:40:38.832Z,444.00
2018-05-27T03:41:38.836Z,464.00
2018-05-27T03:42:38.843Z,488.00
2018-05-27T03:43:38.843Z,512.00
2018-05-27T03:44:38.848Z,536.00
2018-05-27T03:45:38.852Z,560.00
2018-05-27T03:46:38.855Z,588.00
2018-05-27T03:47:38.859Z,620.00
2018-05-27T03:48:38.864Z,652.00
2018-05-27T03:49:38.869Z,688.00
2018-05-27T03:50:38.872Z,728.00
2018-05-27T03:51:38.876Z,772.00
2018-05-27T03:52:38.881Z,816.00
2018-05-27T03:53:38.884Z,860.00
2018-05-27T03:54:38.888Z,904.00
2018-05-27T03:55:38.893Z,948.00
2018-05-27T03:56:38.897Z,996.00
2018-05-27T03:57:38.899Z,1040.00
2018-05-27T03:58:38.905Z,1088.00
2018-05-27T03:59:38.909Z,1128.00
2018-05-27T04:00:38.912Z,1168.00
2018-05-27T04:01:38.918Z,1200.00
2018-05-27T04:02:38.921Z,1236.00
2018-05-27T04:03:38.925Z,1264.00
2018-05-27T04:04:38.931Z,1288.00
2018-05-27T04:05:38.935Z,1316.00
2018-05-27T04:06:38.938Z,1344.00
2018-05-27T04:07:38.948Z,1376.00
2018-05-27T04:08:38.998Z,1408.00
2018-05-27T04:09:38.950Z,1440.00
2018-05-27T04:10:38.955Z,1476.00
2018-05-27T04:11:38.961Z,1512.00
2018-05-27T04:12:38.963Z,1548.00
2018-05-27T04:13:38.967Z,1600.00
2018-05-27T04:14:38.970Z,1656.00
2018-05-27T04:15:38.976Z,1724.00
2018-05-27T04:16:38.979Z,1792.00
2018-05-27T04:17:38.983Z,1848.00
2018-05-27T04:18:38.989Z,1904.00
2018-05-27T04:19:38.991Z,1964.00
2018-05-27T04:20:38.996Z,2036.00
2018-05-27T04:21:39.003Z,2132.00
2018-05-27T04:22:39.003Z,2236.00
2018-05-27T04:23:39.010Z,2352.00
2018-05-27T04:24:39.013Z,2484.00
2018-05-27T04:25:39.016Z,2636.00
2018-05-27T04:26:39.021Z,2776.00
2018-05-27T04:27:39.029Z,2892.00
2018-05-27T04:28:39.089Z,2980.00
2018-05-27T04:29:39.034Z,3028.00
2018-05-27T04:30:39.037Z,3068.00
2018-05-27T04:31:39.045Z,3100.00
2018-05-27T04:32:39.048Z,3144.00
2018-05-27T04:33:39.051Z,3200.00
2018-05-27T04:34:39.055Z,3252.00
2018-05-27T04:35:39.062Z,3300.00
2018-05-27T04:36:39.064Z,3336.00
2018-05-27T04:37:39.068Z,3364.00
2018-05-27T04:38:39.072Z,3384.00
2018-05-27T04:39:39.075Z,3416.00
2018-05-27T04:40:39.081Z,3476.00
2018-05-27T04:41:39.086Z,3548.00
2018-05-27T04:42:39.089Z,3620.00
2018-05-27T04:43:39.094Z,3664.00
2018-05-27T04:44:39.097Z,3704.00
2018-05-27T04:45:39.103Z,3736.00
2018-05-27T04:46:39.106Z,3772.00
2018-05-27T04:47:39.112Z,3812.00
2018-05-27T04:48:39.114Z,3860.00
2018-05-27T04:49:39.120Z,3912.00
2018-05-27T04:50:39.123Z,3968.00
2018-05-27T04:51:39.131Z,4020.00
2018-05-27T04:52:39.133Z,4068.00
2018-05-27T04:53:39.136Z,4116.00
2018-05-27T04:54:39.140Z,4164.00
2018-05-27T04:55:39.146Z,4216.00
2018-05-27T04:56:39.153Z,4272.00
2018-05-27T04:57:39.155Z,4332.00
2018-05-27T04:58:39.162Z,4396.00
2018-05-27T04:59:39.163Z,4464.00
2018-05-27T05:00:39.168Z,4532.00
2018-05-27T05:01:39.173Z,4612.00
2018-05-27T05:02:39.175Z,4688.00
2018-05-27T05:03:39.182Z,4768.00
2018-05-27T05:04:39.186Z,4856.00
2018-05-27T05:05:39.193Z,4936.00
2018-05-27T05:06:39.195Z,4992.00
2018-05-27T05:07:39.198Z,5028.00
2018-05-27T05:08:39.204Z,5056.00
2018-05-27T05:09:39.209Z,5080.00
2018-05-27T05:10:39.213Z,5132.00
2018-05-27T05:11:39.218Z,15520.00
2018-05-27T05:12:39.223Z,29472.00
2018-05-27T05:13:39.230Z,29120.00
2018-05-27T05:14:39.232Z,25120.00
2018-05-27T05:15:39.238Z,19968.00
2018-05-27T05:16:39.242Z,15232.00
2018-05-27T05:17:39.248Z,11072.00
2018-05-27T05:18:39.256Z,7564.00
2018-05-27T05:19:39.259Z,6008.00
2018-05-27T05:20:39.265Z,5952.00
2018-05-27T05:21:39.271Z,5920.00
2018-05-27T05:22:39.277Z,5896.00
2018-05-27T05:23:39.284Z,5900.00
2018-05-27T05:24:39.290Z,5928.00
2018-05-27T05:25:39.297Z,5976.00
2018-05-27T05:26:39.302Z,6040.00
2018-05-27T05:27:39.314Z,6108.00
2018-05-27T05:28:39.317Z,6188.00
2018-05-27T05:29:39.322Z,6264.00
2018-05-27T05:30:39.328Z,6340.00
2018-05-27T05:31:39.335Z,6404.00
2018-05-27T05:32:39.342Z,6460.00
2018-05-27T05:33:39.350Z,6520.00
2018-05-27T05:34:39.354Z,6564.00
2018-05-27T05:35:39.361Z,6608.00
2018-05-27T05:36:39.368Z,6648.00
2018-05-27T05:37:39.374Z,6692.00
2018-05-27T05:38:39.379Z,6724.00
2018-05-27T05:39:39.386Z,6748.00
2018-05-27T05:40:39.393Z,6760.00
2018-05-27T05:41:39.399Z,6776.00
2018-05-27T05:42:39.404Z,6788.00
2018-05-27T05:43:39.458Z,6808.00
2018-05-27T05:44:39.423Z,6832.00
2018-05-27T05:45:39.426Z,6872.00
2018-05-27T05:46:39.430Z,6904.00
2018-05-27T05:47:39.437Z,6944.00
2018-05-27T05:48:39.443Z,6988.00
2018-05-27T05:49:39.450Z,7024.00
2018-05-27T05:50:39.456Z,7060.00
2018-05-27T05:51:39.462Z,7084.00
2018-05-27T05:52:39.469Z,7120.00
2018-05-27T05:53:39.475Z,7156.00
2018-05-27T05:54:39.481Z,7216.00
2018-05-27T05:55:39.487Z,7276.00
2018-05-27T05:56:39.494Z,7340.00
2018-05-27T05:57:39.501Z,7404.00
2018-05-27T05:58:39.507Z,7472.00
2018-05-27T05:59:39.515Z,7528.00
2018-05-27T06:00:39.518Z,7576.00
2018-05-27T06:01:39.525Z,7620.00
2018-05-27T06:02:39.530Z,7668.00
2018-05-27T06:03:39.536Z,7728.00
2018-05-27T06:04:39.543Z,7808.00
2018-05-27T06:05:39.550Z,7904.00
2018-05-27T06:06:39.555Z,8028.00
2018-05-27T06:07:39.565Z,8164.00
2018-05-27T06:08:39.566Z,8320.00
2018-05-27T06:09:39.575Z,8476.00
2018-05-27T06:10:39.580Z,8624.00
2018-05-27T06:11:39.587Z,8752.00
2018-05-27T06:12:39.593Z,8844.00
2018-05-27T06:13:39.652Z,8896.00
2018-05-27T06:14:39.605Z,8920.00
2018-05-27T06:15:39.611Z,8924.00
2018-05-27T06:16:39.617Z,8924.00
2018-05-27T06:17:39.624Z,8936.00
2018-05-27T06:18:39.632Z,8980.00
2018-05-27T06:19:39.641Z,9024.00
2018-05-27T06:20:39.643Z,9084.00
2018-05-27T06:21:39.650Z,9156.00
2018-05-27T06:22:39.657Z,9212.00
2018-05-27T06:23:39.662Z,9252.00
2018-05-27T06:24:39.670Z,9260.00
2018-05-27T06:25:39.690Z,9272.00
2018-05-27T06:26:39.682Z,9308.00
2018-05-27T06:27:39.689Z,9372.00
2018-05-27T06:28:39.695Z,9460.00
2018-05-27T06:29:39.701Z,9560.00
2018-05-27T06:30:39.711Z,9652.00
2018-05-27T06:31:39.720Z,9720.00
2018-05-27T06:32:39.722Z,9772.00
2018-05-27T06:33:39.728Z,9804.00
2018-05-27T06:34:39.734Z,9772.00
2018-05-27T06:35:39.741Z,9688.00
2018-05-27T06:36:39.749Z,9600.00
2018-05-27T06:37:39.755Z,9516.00
2018-05-27T06:38:39.765Z,9464.00
2018-05-27T06:39:39.767Z,9432.00
2018-05-27T06:40:39.775Z,9444.00
2018-05-27T06:41:39.781Z,9464.00
2018-05-27T06:42:39.789Z,9476.00
2018-05-27T06:43:39.794Z,9452.00
2018-05-27T06:44:39.802Z,9444.00
2018-05-27T06:45:39.810Z,9412.00
2018-05-27T06:46:39.816Z,9380.00
2018-05-27T06:47:39.822Z,9340.00
2018-05-27T06:48:39.832Z,9340.00
2018-05-27T06:49:39.836Z,9352.00
2018-05-27T06:50:39.842Z,9384.00
2018-05-27T06:51:39.849Z,9432.00
2018-05-27T06:52:39.856Z,9456.00
2018-05-27T06:53:39.862Z,9480.00
2018-05-27T06:54:39.874Z,9484.00
2018-05-27T06:55:39.877Z,9492.00
2018-05-27T06:56:39.895Z,9504.00
2018-05-27T06:57:39.891Z,9528.00
2018-05-27T06:58:39.897Z,9556.00
2018-05-27T06:59:39.903Z,9592.00
2018-05-27T07:00:39.914Z,9624.00
2018-05-27T07:01:39.919Z,9664.00
2018-05-27T07:02:39.924Z,9688.00
2018-05-27T07:03:39.933Z,9724.00
2018-05-27T07:04:39.969Z,9748.00
2018-05-27T07:05:39.948Z,9768.00
2018-05-27T07:06:39.960Z,9784.00
2018-05-27T07:07:39.966Z,9808.00
2018-05-27T07:08:39.968Z,9828.00
2018-05-27T07:09:39.979Z,9868.00
2018-05-27T07:10:39.983Z,9920.00
2018-05-27T07:11:40.033Z,9964.00
2018-05-27T07:12:39.999Z,10008.00
2018-05-27T07:13:40.006Z,10036.00
2018-05-27T07:14:40.012Z,10060.00
2018-05-27T07:15:40.018Z,10100.00
2018-05-27T07:16:40.027Z,10152.00
2018-05-27T07:17:40.035Z,10228.00
2018-05-27T07:18:40.041Z,10304.00
2018-05-27T07:19:40.049Z,10372.00
2018-05-27T07:20:40.057Z,10412.00
2018-05-27T07:21:40.064Z,10432.00
2018-05-27T07:22:40.071Z,10444.00
2018-05-27T07:23:40.082Z,10468.00
2018-05-27T07:24:40.086Z,10468.00
2018-05-27T07:25:40.093Z,10472.00
2018-05-27T07:26:40.105Z,10464.00
2018-05-27T07:27:40.108Z,10456.00
2018-05-27T07:28:40.117Z,10448.00
2018-05-27T07:29:40.125Z,10564.00
2018-05-27T07:30:40.132Z,19712.00
2018-05-27T07:31:40.139Z,44800.00
2018-05-27T07:32:40.151Z,67008.00
2018-05-27T07:33:40.155Z,71776.00
2018-05-27T07:34:40.162Z,70848.00
2018-05-27T07:35:40.171Z,72288.00
2018-05-27T07:36:40.180Z,72160.00
2018-05-27T07:37:40.190Z,72096.00
2018-05-27T07:38:40.199Z,72800.00
2018-05-27T07:39:40.209Z,72576.00
2018-05-27T07:40:40.251Z,73568.00
2018-05-27T07:41:40.230Z,73216.00
2018-05-27T07:42:40.245Z,73152.00
2018-05-27T07:43:40.252Z,73920.00
2018-05-27T07:44:40.263Z,72352.00
2018-05-27T07:45:40.275Z,71936.00
2018-05-27T07:46:40.303Z,73088.00
2018-05-27T07:47:40.299Z,73056.00
2018-05-27T07:48:40.311Z,73152.00
2018-05-27T07:49:40.326Z,74080.00
2018-05-27T07:50:40.336Z,73856.00
2018-05-27T07:51:40.351Z,71904.00
2018-05-27T07:52:40.364Z,70624.00
2018-05-27T07:53:40.376Z,71264.00
2018-05-27T07:54:40.389Z,72448.00
2018-05-27T07:55:40.403Z,71808.00
2018-05-27T07:56:40.417Z,72608.00
2018-05-27T07:57:40.431Z,70592.00
2018-05-27T07:58:40.445Z,69600.00
2018-05-27T07:59:40.460Z,70944.00
2018-05-27T08:00:40.475Z,71424.00
2018-05-27T08:01:40.489Z,71296.00
2018-05-27T08:02:40.506Z,72160.00
2018-05-27T08:03:40.517Z,71712.00
2018-05-27T08:04:40.533Z,72128.00
2018-05-27T08:05:40.548Z,72512.00
2018-05-27T08:06:40.563Z,73408.00
2018-05-27T08:07:40.578Z,73536.00
2018-05-27T08:08:40.594Z,73888.00
2018-05-27T08:09:40.609Z,74016.00
2018-05-27T08:10:40.624Z,73376.00
2018-05-27T08:11:40.640Z,70464.00
2018-05-27T08:12:40.655Z,70016.00
2018-05-27T08:13:40.671Z,70464.00
2018-05-27T08:14:40.687Z,64896.00
2018-05-27T08:15:40.704Z,60960.00
2018-05-27T08:16:40.719Z,66496.00
2018-05-27T08:17:40.736Z,74688.00
2018-05-27T08:18:40.755Z,74688.00
2018-05-27T08:19:40.784Z,73920.00
2018-05-27T08:20:40.784Z,73088.00
2018-05-27T08:21:40.800Z,71648.00
2018-05-27T08:22:40.815Z,71424.00
2018-05-27T08:23:40.832Z,72032.00
2018-05-27T08:24:40.849Z,73504.00
2018-05-27T08:25:40.865Z,71936.00
2018-05-27T08:26:40.881Z,72736.00
2018-05-27T08:27:40.896Z,71840.00
2018-05-27T08:28:40.914Z,72064.00
2018-05-27T08:29:40.932Z,74272.00
2018-05-27T08:30:40.947Z,75584.00
2018-05-27T08:31:40.966Z,74176.00
2018-05-27T08:32:40.981Z,72128.00
2018-05-27T08:33:41.001Z,71808.00
2018-05-27T08:34:41.015Z,73632.00
2018-05-27T08:35:41.031Z,73856.00
2018-05-27T08:36:41.050Z,72032.00
2018-05-27T08:37:41.067Z,70592.00
2018-05-27T08:38:41.084Z,70496.00
2018-05-27T08:39:41.101Z,69728.00
2018-05-27T08:40:41.118Z,68128.00
2018-05-27T08:41:41.136Z,68480.00
2018-05-27T08:42:41.153Z,68608.00
2018-05-27T08:43:41.170Z,69152.00
2018-05-27T08:44:41.189Z,69920.00
2018-05-27T08:45:41.207Z,69472.00
2018-05-27T08:46:41.227Z,69920.00
2018-05-27T08:47:41.241Z,70336.00
2018-05-27T08:48:41.258Z,68224.00
2018-05-27T08:49:41.277Z,68288.00
2018-05-27T08:50:41.294Z,68960.00
2018-05-27T08:51:41.313Z,67936.00
2018-05-27T08:52:41.330Z,68000.00
2018-05-27T08:53:41.349Z,67296.00
2018-05-27T08:54:41.366Z,66144.00
2018-05-27T08:55:41.384Z,67616.00
2018-05-27T08:56:41.401Z,66944.00
2018-05-27T08:57:41.420Z,67232.00
2018-05-27T08:58:41.453Z,66560.00
2018-05-27T08:59:41.458Z,58752.00
2018-05-27T09:00:41.475Z,64992.00
2018-05-27T09:01:41.493Z,64736.00
2018-05-27T09:02:41.510Z,64000.00
2018-05-27T09:03:41.588Z,65760.00
2018-05-27T09:04:41.546Z,64608.00
2018-05-27T09:05:41.565Z,62080.00
2018-05-27T09:06:41.583Z,63136.00
2018-05-27T09:07:41.600Z,58368.00
2018-05-27T09:08:41.619Z,60544.00
2018-05-27T09:09:41.636Z,60928.00
2018-05-27T09:10:41.654Z,60992.00
2018-05-27T09:11:41.672Z,59648.00
2018-05-27T09:12:41.692Z,60480.00
2018-05-27T09:13:41.711Z,54368.00
2018-05-27T09:14:41.727Z,51936.00
2018-05-27T09:15:41.747Z,59136.00
2018-05-27T09:16:41.765Z,56608.00
2018-05-27T09:17:41.784Z,57760.00
2018-05-27T09:18:41.799Z,58592.00
2018-05-27T09:19:41.819Z,57248.00
2018-05-27T09:20:41.836Z,55808.00
2018-05-27T09:21:41.858Z,55456.00
2018-05-27T09:22:41.872Z,51392.00
2018-05-27T09:23:41.892Z,50176.00
2018-05-27T09:24:41.909Z,53024.00
2018-05-27T09:25:41.929Z,49248.00
2018-05-27T09:26:41.945Z,46880.00
2018-05-27T09:27:41.964Z,49184.00
2018-05-27T09:28:41.983Z,56992.00
2018-05-27T09:29:42.001Z,59904.00
2018-05-27T09:30:42.019Z,42592.00
2018-05-27T09:31:42.037Z,27520.00
2018-05-27T09:32:42.055Z,23200.00
2018-05-27T09:33:42.075Z,23616.00
2018-05-27T09:34:42.092Z,23648.00
2018-05-27T09:35:42.108Z,23136.00
2018-05-27T09:36:42.127Z,23200.00
2018-05-27T09:37:42.143Z,24768.00
2018-05-27T09:38:42.163Z,26848.00
2018-05-27T09:39:42.179Z,28672.00
2018-05-27T09:40:42.197Z,28640.00
2018-05-27T09:41:42.214Z,30368.00
2018-05-27T09:42:42.231Z,29088.00
2018-05-27T09:43:42.249Z,26816.00
2018-05-27T09:44:42.266Z,26112.00
2018-05-27T09:45:42.284Z,24928.00
2018-05-27T09:46:42.302Z,23360.00
2018-05-27T09:47:42.317Z,24928.00
2018-05-27T09:48:42.336Z,24896.00
2018-05-27T09:49:42.353Z,24448.00
2018-05-27T09:50:42.369Z,23936.00
2018-05-27T09:51:42.387Z,23616.00
2018-05-27T09:52:42.404Z,23520.00
2018-05-27T09:53:42.423Z,22816.00
2018-05-27T09:54:42.439Z,22976.00
2018-05-27T09:55:42.457Z,21600.00
2018-05-27T09:56:42.474Z,22272.00
2018-05-27T09:57:42.490Z,21440.00
2018-05-27T09:58:42.507Z,20544.00
2018-05-27T09:59:42.526Z,21152.00
2018-05-27T10:00:42.543Z,20864.00
2018-05-27T10:01:42.564Z,20992.00
2018-05-27T10:02:42.576Z,18432.00
2018-05-27T10:03:42.598Z,16928.00
2018-05-27T10:04:42.613Z,19168.00
2018-05-27T10:05:42.626Z,18688.00
2018-05-27T10:06:42.643Z,18976.00
2018-05-27T10:07:42.659Z,21312.00
2018-05-27T10:08:42.679Z,18720.00
2018-05-27T10:09:42.694Z,14820.00
2018-05-27T10:10:42.709Z,12600.00
2018-05-27T10:11:42.778Z,15176.00
2018-05-27T10:12:42.787Z,16960.00
2018-05-27T10:13:42.760Z,18368.00
2018-05-27T10:14:42.778Z,19776.00
2018-05-27T10:15:42.792Z,20064.00
2018-05-27T10:16:42.812Z,20448.00
2018-05-27T10:17:42.825Z,20448.00
2018-05-27T10:18:42.843Z,20096.00
2018-05-27T10:19:42.857Z,19872.00
2018-05-27T10:20:42.873Z,19328.00
2018-05-27T10:21:42.892Z,19872.00
2018-05-27T10:22:42.905Z,20000.00
2018-05-27T10:23:42.921Z,19520.00
2018-05-27T10:24:42.937Z,17728.00
2018-05-27T10:25:42.954Z,16004.00
2018-05-27T10:26:42.969Z,15160.00
2018-05-27T10:27:42.985Z,17792.00
2018-05-27T10:28:43.002Z,19680.00
2018-05-27T10:29:43.018Z,19872.00
2018-05-27T10:30:43.035Z,20448.00
2018-05-27T10:31:43.050Z,17472.00
2018-05-27T10:32:43.068Z,19936.00
2018-05-27T10:33:43.081Z,21696.00
2018-05-27T10:34:43.099Z,22752.00
2018-05-27T10:35:43.112Z,23968.00
2018-05-27T10:36:43.129Z,24032.00
2018-05-27T10:37:43.145Z,24576.00
2018-05-27T10:38:43.160Z,25440.00
2018-05-27T10:39:43.177Z,26400.00
2018-05-27T10:40:43.195Z,27904.00
2018-05-27T10:41:43.210Z,30688.00
2018-05-27T10:42:43.224Z,33696.00
2018-05-27T10:43:43.240Z,33376.00
2018-05-27T10:44:43.257Z,32448.00
2018-05-27T10:45:43.272Z,28512.00
2018-05-27T10:46:43.288Z,27168.00
2018-05-27T10:47:43.304Z,27168.00
2018-05-27T10:48:43.321Z,25824.00
2018-05-27T10:49:43.336Z,24416.00
2018-05-27T10:50:43.351Z,22368.00
2018-05-27T10:51:43.366Z,21312.00
2018-05-27T10:52:43.385Z,19584.00
2018-05-27T10:53:43.403Z,17056.00
2018-05-27T10:54:43.415Z,14260.00
2018-05-27T10:55:43.431Z,12920.00
2018-05-27T10:56:43.447Z,12732.00
2018-05-27T10:57:43.463Z,12672.00
2018-05-27T10:58:43.477Z,12224.00
2018-05-27T10:59:43.494Z,11712.00
2018-05-27T11:00:43.509Z,11384.00
2018-05-27T11:01:43.525Z,11272.00
2018-05-27T11:02:43.540Z,11416.00
2018-05-27T11:03:43.555Z,13484.00
2018-05-27T11:04:43.569Z,12232.00
2018-05-27T11:05:43.605Z,14860.00
2018-05-27T11:06:43.600Z,11252.00
2018-05-27T11:07:43.617Z,10320.00
2018-05-27T11:08:43.637Z,9620.00
2018-05-27T11:09:43.644Z,9152.00
2018-05-27T11:10:43.659Z,8900.00
2018-05-27T11:11:43.673Z,9916.00
2018-05-27T11:12:43.688Z,9460.00
2018-05-27T11:13:43.701Z,9120.00
2018-05-27T11:14:43.715Z,9588.00
2018-05-27T11:15:43.730Z,11596.00
2018-05-27T11:16:43.752Z,12368.00
2018-05-27T11:17:43.757Z,11020.00
2018-05-27T11:18:43.773Z,10244.00
2018-05-27T11:19:43.784Z,9924.00
2018-05-27T11:20:43.829Z,11048.00
2018-05-27T11:21:43.812Z,12632.00
2018-05-27T11:22:43.824Z,11932.00
2018-05-27T11:23:43.839Z,12664.00
2018-05-27T11:24:43.852Z,12608.00
2018-05-27T11:25:43.865Z,11960.00
2018-05-27T11:26:43.877Z,11720.00
2018-05-27T11:27:43.889Z,11892.00
2018-05-27T11:28:43.903Z,12688.00
2018-05-27T11:29:43.918Z,13292.00
2018-05-27T11:30:43.927Z,13488.00
2018-05-27T11:31:43.941Z,13064.00
2018-05-27T11:32:43.955Z,12664.00
2018-05-27T11:33:43.969Z,12944.00
2018-05-27T11:34:43.979Z,13136.00
2018-05-27T11:35:43.993Z,13076.00
2018-05-27T11:36:44.005Z,12648.00
2018-05-27T11:37:44.020Z,12108.00
2018-05-27T11:38:44.030Z,12356.00
2018-05-27T11:39:44.046Z,12328.00
2018-05-27T11:40:44.058Z,11724.00
2018-05-27T11:41:44.069Z,11560.00
2018-05-27T11:42:44.081Z,11344.00
2018-05-27T11:43:44.094Z,11652.00
2018-05-27T11:44:44.106Z,11624.00
2018-05-27T11:45:44.120Z,11352.00
2018-05-27T11:46:44.132Z,11604.00
2018-05-27T11:47:44.144Z,11708.00
2018-05-27T11:48:44.156Z,11916.00
2018-05-27T11:49:44.170Z,11756.00
2018-05-27T11:50:44.181Z,11856.00
2018-05-27T11:51:44.194Z,11456.00
2018-05-27T11:52:44.208Z,11580.00
2018-05-27T11:53:44.220Z,11272.00
2018-05-27T11:54:44.232Z,11136.00
2018-05-27T11:55:44.244Z,11300.00
2018-05-27T11:56:44.257Z,11264.00
2018-05-27T11:57:44.269Z,11092.00
2018-05-27T11:58:44.280Z,10632.00
2018-05-27T11:59:44.293Z,10276.00
2018-05-27T12:00:44.309Z,9836.00
2018-05-27T12:01:44.363Z,10164.00
2018-05-27T12:02:44.333Z,10168.00
2018-05-27T12:03:44.344Z,10152.00
2018-05-27T12:04:44.354Z,9484.00
2018-05-27T12:05:44.366Z,9448.00
2018-05-27T12:06:44.378Z,9348.00
2018-05-27T12:07:44.394Z,9400.00
2018-05-27T12:08:44.403Z,9580.00
2018-05-27T12:09:44.649Z,9740.00
2018-05-27T12:10:44.428Z,9876.00
2018-05-27T12:11:44.481Z,10136.00
2018-05-27T12:12:44.452Z,9696.00
2018-05-27T12:13:44.464Z,9540.00
2018-05-27T12:14:44.475Z,8488.00
2018-05-27T12:15:44.486Z,8220.00